Time;durP1;ratioP1;P1;durP2;ratioP2;P2;SDS_P1;SDS_P2;PMS_P1;PMS_P2;Temp;Humidity;BMP_temperature;BMP_pressure;BME280_temperature;BME280_humidity;BME280_pressure;Samples;Min_cycle;Max_cycle;Signal;HPM_P1;HPM_P2
2022/04/15 00:01:37;;;;;;;7.13;2.88;;;8.60;99.90;;;;;;5084335;28;20047;-83
2022/04/15 00:04:03;;;;;;;8.90;3.35;;;8.40;99.90;;;;;;5088200;28;20046;-83
2022/04/15 00:06:29;;;;;;;8.20;3.30;;;8.40;99.90;;;;;;5087104;28;20132;-83
2022/04/15 00:08:55;;;;;;;9.07;3.28;;;9.30;99.90;;;;;;5068331;28;20162;-84
2022/04/15 00:11:21;;;;;;;7.55;2.80;;;8.80;99.90;;;;;;5086734;28;20513;-84
2022/04/15 00:13:47;;;;;;;7.45;3.10;;;8.40;99.90;;;;;;5085187;28;20040;-84
2022/04/15 00:16:13;;;;;;;8.63;2.92;;;8.40;99.90;;;;;;5086613;28;20483;-84
2022/04/15 00:18:39;;;;;;;5.03;3.38;;;8.40;99.90;;;;;;5084073;28;20043;-84
2022/04/15 00:21:05;;;;;;;12.02;3.55;;;9.10;99.90;;;;;;5087562;28;20040;-84
2022/04/15 00:23:31;;;;;;;14.15;3.88;;;9.30;99.90;;;;;;5086681;28;20075;-84
2022/04/15 00:25:58;;;;;;;6.57;3.63;;;8.50;99.90;;;;;;5085005;28;20048;-84
2022/04/15 00:28:24;;;;;;;5.68;3.30;;;8.50;99.90;;;;;;5086298;28;20048;-84
2022/04/15 00:30:50;;;;;;;10.73;3.83;;;8.90;99.90;;;;;;5084965;28;20123;-84
2022/04/15 00:33:16;;;;;;;9.35;3.15;;;9.50;99.90;;;;;;5069695;28;20118;-84
2022/04/15 00:35:42;;;;;;;8.82;2.63;;;8.60;99.90;;;;;;5099904;28;20048;-84
2022/04/15 00:38:08;;;;;;;6.55;2.00;;;8.60;99.90;;;;;;5072747;28;20462;-83
2022/04/15 00:40:35;;;;;;;8.05;2.67;;;9.30;99.90;;;;;;5088554;28;20055;-83
2022/04/15 00:43:02;;;;;;;5.38;2.33;;;8.60;99.90;;;;;;5070806;28;20036;-84
2022/04/15 00:45:28;;;;;;;8.15;2.80;;;8.70;99.90;;;;;;5072632;28;20044;-85
2022/04/15 00:47:59;;;;;;;6.35;2.33;;;8.70;99.90;;;;;;5086828;28;20051;-84
2022/04/15 00:50:25;;;;;;;6.35;2.40;;;9.50;99.90;;;;;;5108106;28;20052;-85
2022/04/15 00:52:53;;;;;;;6.47;2.30;;;8.70;99.90;;;;;;5086638;28;20105;-85
2022/04/15 00:55:22;;;;;;;6.15;2.17;;;9.40;99.90;;;;;;5107582;28;20047;-84
2022/04/15 00:57:55;;;;;;;5.75;2.33;;;10.10;99.90;;;;;;5072200;28;20776;-85
2022/04/15 01:00:22;;;;;;;9.23;2.00;;;8.80;99.90;;;;;;5087968;28;20571;-84
2022/04/15 01:02:48;;;;;;;6.03;2.22;;;9.40;99.90;;;;;;5109725;28;20044;-85
2022/04/15 01:05:15;;;;;;;6.35;2.28;;;10.00;99.90;;;;;;5112564;28;20443;-85
2022/04/15 01:07:43;;;;;;;2.40;1.55;;;10.20;99.90;;;;;;5099220;28;20052;-84
2022/04/15 01:10:13;;;;;;;5.40;2.33;;;9.80;99.90;;;;;;5119094;28;20044;-83
2022/04/15 01:12:41;;;;;;;6.10;1.95;;;9.60;99.90;;;;;;5101418;28;20433;-84
2022/04/15 01:15:10;;;;;;;9.43;1.98;;;8.80;99.90;;;;;;5118894;28;20040;-84
2022/04/15 01:17:36;;;;;;;5.53;1.92;;;8.80;99.90;;;;;;5112915;28;20586;-83
2022/04/15 01:20:08;;;;;;;6.93;2.22;;;8.80;99.90;;;;;;5062965;28;20093;-84
2022/04/15 01:22:42;;;;;;;9.65;1.67;;;8.80;99.90;;;;;;5111950;28;20058;-84
2022/04/15 01:25:10;;;;;;;9.27;1.80;;;9.80;99.90;;;;;;5114464;28;20045;-84
2022/04/15 01:27:38;;;;;;;8.60;1.80;;;10.10;99.90;;;;;;5113304;28;20048;-84
2022/04/15 01:30:06;;;;;;;7.10;1.98;;;8.80;99.90;;;;;;5094007;28;20051;-84
2022/04/15 01:32:32;;;;;;;7.13;2.92;;;8.90;99.90;;;;;;5095934;28;20048;-84
2022/04/15 01:34:58;;;;;;;14.18;2.17;;;8.80;99.90;;;;;;5111416;28;20055;-83
2022/04/15 01:37:24;;;;;;;3.63;2.13;;;9.30;99.90;;;;;;5096347;28;20050;-83
2022/04/15 01:39:50;;;;;;;12.48;2.40;;;8.80;99.90;;;;;;5112395;28;20146;-84
2022/04/15 01:42:17;;;;;;;9.07;2.25;;;8.80;99.90;;;;;;5114291;28;20095;-84
2022/04/15 01:44:43;;;;;;;12.88;2.63;;;8.90;99.90;;;;;;5113312;28;20129;-84
2022/04/15 01:47:10;;;;;;;9.10;2.60;;;9.10;99.90;;;;;;5112826;28;20390;-84
2022/04/15 01:49:37;;;;;;;11.18;2.47;;;9.50;99.90;;;;;;5096250;28;20425;-84
2022/04/15 01:52:04;;;;;;;6.78;2.67;;;8.90;99.90;;;;;;5076237;28;20176;-84
2022/04/15 01:54:30;;;;;;;10.20;2.55;;;8.90;99.90;;;;;;5095608;28;20048;-84
2022/04/15 01:56:57;;;;;;;7.00;2.25;;;8.90;99.90;;;;;;5111548;28;20053;-84
2022/04/15 01:59:23;;;;;;;10.85;2.90;;;9.40;99.90;;;;;;5095639;28;20055;-84
2022/04/15 02:01:50;;;;;;;6.95;2.60;;;9.80;99.90;;;;;;5094622;28;20047;-84
2022/04/15 02:04:16;;;;;;;9.77;3.45;;;8.90;99.90;;;;;;5077327;28;20055;-84
2022/04/15 02:06:43;;;;;;;11.63;3.65;;;9.90;99.90;;;;;;5113937;28;20555;-83
2022/04/15 02:09:09;;;;;;;9.43;3.60;;;10.10;99.90;;;;;;5112381;28;20047;-84
2022/04/15 02:11:36;;;;;;;11.88;3.85;;;8.90;99.90;;;;;;5080306;28;20064;-84
2022/04/15 02:14:01;;;;;;;11.65;3.60;;;8.90;99.90;;;;;;5076360;28;20576;-84
2022/04/15 02:16:27;;;;;;;13.52;4.47;;;10.10;99.90;;;;;;5090573;28;20113;-84
2022/04/15 02:18:53;;;;;;;6.45;3.05;;;8.80;99.90;;;;;;5091357;28;20043;-84
2022/04/15 02:21:18;;;;;;;14.13;3.65;;;10.30;99.90;;;;;;5109270;28;20039;-83
2022/04/15 02:23:44;;;;;;;17.55;4.15;;;9.00;99.90;;;;;;5092612;28;20123;-83
2022/04/15 02:26:10;;;;;;;9.13;3.70;;;8.90;99.90;;;;;;5108140;28;20043;-84
2022/04/15 02:28:35;;;;;;;8.48;3.75;;;8.90;99.90;;;;;;5092781;28;20047;-84
2022/04/15 02:31:01;;;;;;;9.95;4.30;;;8.90;99.90;;;;;;5073505;28;20036;-84
2022/04/15 02:33:27;;;;;;;14.68;6.00;;;9.40;99.90;;;;;;5092307;28;20043;-84
2022/04/15 02:35:53;;;;;;;13.82;6.13;;;8.90;99.90;;;;;;5109238;28;20054;-84
2022/04/15 02:38:19;;;;;;;12.38;7.13;;;9.50;99.90;;;;;;5076983;28;20043;-84
2022/04/15 02:40:44;;;;;;;10.75;7.28;;;9.80;99.90;;;;;;5082544;28;20529;-84
2022/04/15 02:43:11;;;;;;;12.70;7.93;;;9.30;99.90;;;;;;5112495;28;20036;-84
2022/04/15 02:45:37;;;;;;;11.77;6.85;;;8.60;99.90;;;;;;5094401;28;20047;-84
2022/04/15 02:48:03;;;;;;;12.82;7.05;;;9.90;99.90;;;;;;5090097;28;20267;-83
2022/04/15 02:50:29;;;;;;;13.85;7.07;;;8.60;99.90;;;;;;5092075;28;20040;-83
2022/04/15 02:52:55;;;;;;;8.50;6.53;;;8.50;99.90;;;;;;5073247;28;20054;-84
2022/04/15 02:55:20;;;;;;;11.18;6.60;;;8.50;99.90;;;;;;5090520;28;20077;-83
2022/04/15 02:57:46;;;;;;;13.27;5.75;;;9.10;99.90;;;;;;5109642;28;20083;-84
2022/04/15 03:00:15;;;;;;;8.23;4.82;;;8.40;99.90;;;;;;5107642;28;20035;-83
2022/04/15 03:02:40;;;;;;;5.00;4.07;;;8.40;99.90;;;;;;5074543;28;20048;-83
2022/04/15 03:05:09;;;;;;;5.93;3.78;;;8.40;99.90;;;;;;5088641;28;20131;-84
2022/04/15 03:07:38;;;;;;;5.30;3.65;;;8.30;99.90;;;;;;5109394;28;20482;-84
2022/04/15 03:10:05;;;;;;;8.88;3.40;;;8.20;99.90;;;;;;5073638;28;20075;-84
2022/04/15 03:12:35;;;;;;;5.15;3.45;;;8.20;99.90;;;;;;5108455;28;20115;-84
2022/04/15 03:15:02;;;;;;;5.72;3.03;;;9.40;99.90;;;;;;5109543;28;20071;-84
2022/04/15 03:17:28;;;;;;;5.18;3.38;;;8.10;99.90;;;;;;5055152;28;20048;-84
2022/04/15 03:19:54;;;;;;;5.43;3.40;;;8.60;99.90;;;;;;5074652;28;20123;-83
2022/04/15 03:22:20;;;;;;;4.60;3.13;;;9.30;99.90;;;;;;5107329;28;20372;-83
2022/04/15 03:24:47;;;;;;;5.88;3.60;;;7.90;99.90;;;;;;5090960;28;20137;-83
2022/04/15 03:27:13;;;;;;;6.63;3.22;;;7.80;99.90;;;;;;5072416;28;20043;-83
2022/04/15 03:29:38;;;;;;;4.15;3.00;;;9.10;99.90;;;;;;5073154;28;20043;-83
2022/04/15 03:32:04;;;;;;;6.47;3.40;;;8.90;99.90;;;;;;5109152;28;20564;-84
2022/04/15 03:34:30;;;;;;;6.30;3.13;;;7.60;99.90;;;;;;5087851;28;20054;-84
2022/04/15 03:36:56;;;;;;;4.55;2.65;;;8.50;99.90;;;;;;5088981;28;20091;-84
2022/04/15 03:39:23;;;;;;;3.28;2.88;;;7.50;99.90;;;;;;5052895;28;20036;-84
2022/04/15 03:41:48;;;;;;;5.32;3.13;;;7.50;99.90;;;;;;5089830;28;20110;-84
2022/04/15 03:44:14;;;;;;;2.97;2.55;;;7.40;99.90;;;;;;5086289;28;20040;-84
2022/04/15 03:46:40;;;;;;;4.75;2.35;;;8.90;99.90;;;;;;5069598;28;20119;-84
2022/04/15 03:49:07;;;;;;;3.92;2.78;;;7.60;99.90;;;;;;5070448;28;20514;-83
2022/04/15 03:51:34;;;;;;;5.22;2.78;;;9.00;99.90;;;;;;5086398;28;20048;-84
2022/04/15 03:53:59;;;;;;;5.57;2.33;;;8.70;99.90;;;;;;5089030;28;20055;-83
2022/04/15 03:56:25;;;;;;;2.88;2.20;;;9.20;99.90;;;;;;5084855;28;20048;-84
2022/04/15 03:58:51;;;;;;;3.45;1.73;;;7.70;99.90;;;;;;5088673;28;20047;-84
2022/04/15 04:01:16;;;;;;;3.67;2.05;;;9.10;99.90;;;;;;5086258;28;20044;-84
2022/04/15 04:03:42;;;;;;;7.07;2.10;;;8.40;99.90;;;;;;5086997;28;20048;-84
2022/04/15 04:06:08;;;;;;;2.53;1.40;;;7.80;99.90;;;;;;5090810;28;20032;-84
2022/04/15 04:08:34;;;;;;;2.20;1.30;;;8.60;99.90;;;;;;5092777;28;20040;-84
2022/04/15 04:11:00;;;;;;;3.47;1.52;;;7.80;99.90;;;;;;5093286;28;20048;-84
2022/04/15 04:13:25;;;;;;;5.63;1.80;;;7.80;99.90;;;;;;5072092;28;20055;-84
2022/04/15 04:15:51;;;;;;;3.13;1.30;;;7.70;99.90;;;;;;5088546;28;20044;-84
2022/04/15 04:18:20;;;;;;;3.78;1.23;;;8.10;99.90;;;;;;5085123;28;20399;-84
2022/04/15 04:20:47;;;;;;;3.45;1.95;;;9.00;99.90;;;;;;5086140;28;20051;-84
2022/04/15 04:23:13;;;;;;;4.45;2.00;;;9.00;99.90;;;;;;5088166;28;20412;-84
2022/04/15 04:25:39;;;;;;;2.83;1.95;;;7.80;99.90;;;;;;5085965;28;20395;-84
2022/04/15 04:28:05;;;;;;;5.47;2.53;;;9.00;99.90;;;;;;5086638;28;20047;-84
2022/04/15 04:30:30;;;;;;;5.15;2.25;;;7.80;99.90;;;;;;5085518;28;20093;-84
2022/04/15 04:32:59;;;;;;;2.50;1.88;;;7.70;99.90;;;;;;5086516;28;20504;-84
2022/04/15 04:35:25;;;;;;;3.55;2.05;;;7.70;99.90;;;;;;5094007;28;20169;-84
2022/04/15 04:37:51;;;;;;;2.47;1.60;;;8.30;99.90;;;;;;5088700;28;20047;-83
2022/04/15 04:40:17;;;;;;;2.67;1.60;;;8.60;99.90;;;;;;5089488;28;20422;-84
2022/04/15 04:42:46;;;;;;;2.83;1.70;;;7.70;99.90;;;;;;5087656;28;20036;-84
2022/04/15 04:45:12;;;;;;;2.88;1.75;;;7.70;99.90;;;;;;5089771;28;20475;-84
2022/04/15 04:47:39;;;;;;;4.50;1.73;;;8.60;99.90;;;;;;5087089;28;20048;-84
2022/04/15 04:50:08;;;;;;;4.00;1.83;;;8.60;99.90;;;;;;5089459;28;20118;-83
2022/04/15 04:52:35;;;;;;;4.15;1.98;;;7.60;99.90;;;;;;5088168;28;20035;-83
2022/04/15 04:55:01;;;;;;;3.97;2.08;;;7.60;99.90;;;;;;5107131;28;20032;-83
2022/04/15 04:57:26;;;;;;;6.03;2.45;;;7.60;99.90;;;;;;5107779;28;20036;-83
2022/04/15 04:59:52;;;;;;;3.40;2.20;;;7.60;99.90;;;;;;5087358;28;20625;-83
2022/04/15 05:02:18;;;;;;;4.20;2.70;;;7.60;99.90;;;;;;5108226;28;20440;-83
2022/04/15 05:04:43;;;;;;;9.65;2.45;;;7.60;99.90;;;;;;5070553;28;20494;-83
2022/04/15 05:07:09;;;;;;;7.60;3.00;;;9.00;99.90;;;;;;5094847;28;20043;-84
2022/04/15 05:09:41;;;;;;;4.53;2.45;;;7.60;99.90;;;;;;5073560;28;20051;-85
2022/04/15 05:12:08;;;;;;;2.92;2.03;;;7.60;99.90;;;;;;5072563;28;20478;-84
2022/04/15 05:14:33;;;;;;;4.55;2.28;;;7.60;99.90;;;;;;5089265;28;20039;-83
2022/04/15 05:16:59;;;;;;;4.43;2.38;;;7.60;99.90;;;;;;5087878;28;20510;-83
2022/04/15 05:19:25;;;;;;;3.70;2.70;;;7.70;99.90;;;;;;5108590;28;20048;-84
2022/04/15 05:21:52;;;;;;;4.28;3.17;;;7.60;99.90;;;;;;5105876;28;20051;-83
2022/04/15 05:24:19;;;;;;;8.07;3.10;;;8.80;99.90;;;;;;5073016;28;20096;-83
2022/04/15 05:26:44;;;;;;;4.15;2.67;;;8.20;99.90;;;;;;5088400;28;20104;-83
2022/04/15 05:29:10;;;;;;;4.28;2.97;;;7.70;99.90;;;;;;5088677;28;20554;-83
2022/04/15 05:31:36;;;;;;;8.15;2.92;;;9.00;99.90;;;;;;5073821;28;20134;-83
2022/04/15 05:34:02;;;;;;;3.97;3.25;;;7.60;99.90;;;;;;5090781;28;20089;-84
2022/04/15 05:36:28;;;;;;;6.68;3.83;;;8.80;99.90;;;;;;5128647;28;20062;-83
2022/04/15 05:38:54;;;;;;;10.25;4.53;;;8.60;99.90;;;;;;5111563;28;20056;-84
2022/04/15 05:41:19;;;;;;;5.07;3.60;;;8.80;99.90;;;;;;5108383;28;20561;-85
2022/04/15 05:43:46;;;;;;;5.45;3.45;;;7.80;99.90;;;;;;5070529;28;20048;-83
2022/04/15 05:46:12;;;;;;;5.22;3.42;;;7.80;99.90;;;;;;5088861;28;20066;-85
2022/04/15 05:48:38;;;;;;;7.00;4.15;;;9.10;99.90;;;;;;5088475;28;20081;-83
2022/04/15 05:51:04;;;;;;;5.78;3.42;;;7.80;99.90;;;;;;5056931;28;20094;-85
2022/04/15 05:53:30;;;;;;;5.07;3.95;;;9.10;99.90;;;;;;5111240;28;20142;-84
2022/04/15 05:55:57;;;;;;;5.82;4.00;;;7.80;99.90;;;;;;5073294;28;20070;-85
2022/04/15 05:58:26;;;;;;;10.25;4.00;;;8.20;99.90;;;;;;5092596;28;20119;-83
2022/04/15 06:00:53;;;;;;;8.85;4.10;;;7.90;99.90;;;;;;5073953;28;20043;-84
2022/04/15 06:03:21;;;;;;;5.78;3.88;;;7.90;99.90;;;;;;5091924;28;20054;-84
2022/04/15 06:05:49;;;;;;;5.22;3.20;;;9.30;99.90;;;;;;5091759;28;20486;-84
2022/04/15 06:08:15;;;;;;;7.03;4.38;;;7.90;99.90;;;;;;5090348;28;20793;-84
2022/04/15 06:10:42;;;;;;;6.20;4.22;;;8.00;99.90;;;;;;5075150;28;20039;-84
2022/04/15 06:13:14;;;;;;;9.95;5.03;;;9.30;99.90;;;;;;5089954;28;20044;-83
2022/04/15 06:15:51;;;;;;;7.15;4.13;;;8.00;99.90;;;;;;5075409;28;20043;-84
2022/04/15 06:18:20;;;;;;;9.32;5.72;;;9.40;99.90;;;;;;5074044;28;20516;-83
2022/04/15 06:20:47;;;;;;;13.80;7.07;;;8.10;99.90;;;;;;5090110;28;20101;-84
2022/04/15 06:23:14;;;;;;;11.13;6.53;;;8.50;99.90;;;;;;5091734;28;20126;-84
2022/04/15 06:25:41;;;;;;;11.02;7.32;;;8.20;99.90;;;;;;5072743;28;20046;-85
2022/04/15 06:28:07;;;;;;;13.73;8.07;;;8.20;99.90;;;;;;5092238;28;20105;-85
2022/04/15 06:30:32;;;;;;;16.63;8.25;;;8.20;99.90;;;;;;5090131;28;20347;-85
2022/04/15 06:32:58;;;;;;;12.75;7.57;;;9.10;99.90;;;;;;5091774;28;20501;-84
2022/04/15 06:35:24;;;;;;;16.13;7.82;;;8.30;99.90;;;;;;5109815;28;20047;-85
2022/04/15 06:37:52;;;;;;;10.82;6.57;;;8.30;99.90;;;;;;5075037;28;20070;-83
2022/04/15 06:40:18;;;;;;;17.58;6.75;;;8.30;99.90;;;;;;5110426;28;20050;-84
2022/04/15 06:42:44;;;;;;;12.52;6.80;;;8.30;99.90;;;;;;5072454;28;20126;-85
2022/04/15 06:45:11;;;;;;;22.40;7.60;;;8.40;99.90;;;;;;5058962;28;20086;-83
2022/04/15 06:47:37;;;;;;;13.98;5.85;;;9.60;99.90;;;;;;5108120;28;20040;-89
2022/04/15 06:50:03;;;;;;;13.52;7.35;;;8.60;99.90;;;;;;5058380;28;20047;-86
2022/04/15 06:52:29;;;;;;;18.27;6.55;;;8.50;99.90;;;;;;5057084;28;20057;-85
2022/04/15 06:54:55;;;;;;;19.33;6.55;;;9.60;99.90;;;;;;5090088;28;20036;-85
2022/04/15 06:57:20;;;;;;;13.35;5.85;;;8.90;99.90;;;;;;5110307;28;20090;-85
2022/04/15 06:59:46;;;;;;;13.77;6.53;;;9.90;99.90;;;;;;5089447;28;20524;-90
2022/04/15 07:02:11;;;;;;;13.18;6.30;;;7.50;99.90;;;;;;5109703;28;20132;-85
2022/04/15 07:04:37;;;;;;;11.80;5.85;;;8.50;99.90;;;;;;5058161;28;20043;-81
2022/04/15 07:07:03;;;;;;;11.68;5.90;;;9.00;99.90;;;;;;5095524;28;20051;-84
2022/04/15 07:09:29;;;;;;;16.10;5.15;;;8.70;99.90;;;;;;5062272;28;20154;-85
2022/04/15 07:11:56;;;;;;;13.25;4.57;;;8.80;99.90;;;;;;5093017;28;20372;-83
2022/04/15 07:14:22;;;;;;;14.02;4.88;;;10.10;99.90;;;;;;5109661;28;20085;-83
2022/04/15 07:16:47;;;;;;;10.40;4.88;;;8.90;99.90;;;;;;5107173;28;20044;-83
2022/04/15 07:19:13;;;;;;;16.35;4.35;;;9.00;99.90;;;;;;5091206;28;20487;-83
2022/04/15 07:21:41;;;;;;;13.63;5.07;;;10.50;99.90;;;;;;5088087;28;20332;-83
2022/04/15 07:24:08;;;;;;;14.02;4.15;;;10.50;99.90;;;;;;5108987;28;20047;-84
2022/04/15 07:26:34;;;;;;;9.13;4.00;;;9.20;99.90;;;;;;5089669;28;20035;-84
2022/04/15 07:29:00;;;;;;;7.53;4.03;;;10.10;99.90;;;;;;5089604;28;20056;-84
2022/04/15 07:31:26;;;;;;;7.90;4.10;;;9.60;99.90;;;;;;5090830;28;20075;-83
2022/04/15 07:33:52;;;;;;;10.15;4.68;;;10.00;99.90;;;;;;5071289;28;20050;-84
2022/04/15 07:39:14;;;;;;;19.35;4.60;;;9.30;99.90;;;;;;5083516;28;20092;-80
2022/04/15 07:41:40;;;;;;;13.30;4.07;;;9.40;99.90;;;;;;5108587;28;20645;-79
2022/04/15 07:44:11;;;;;;;12.38;4.32;;;9.30;99.90;;;;;;5109345;28;20075;-79
2022/04/15 07:46:38;;;;;;;7.82;4.07;;;9.30;99.90;;;;;;5107564;28;20047;-78
2022/04/15 07:49:05;;;;;;;7.15;4.03;;;9.30;99.90;;;;;;5109707;28;20061;-79
2022/04/15 07:51:31;;;;;;;12.10;4.35;;;9.30;99.90;;;;;;5088937;28;20109;-78
2022/04/15 07:53:58;;;;;;;16.40;4.55;;;9.30;99.90;;;;;;5109459;28;20123;-79
2022/04/15 07:56:24;;;;;;;14.52;4.03;;;9.30;99.90;;;;;;5090053;28;20486;-81
2022/04/15 07:58:52;;;;;;;8.38;3.70;;;9.40;99.90;;;;;;5109657;28;20115;-82
2022/04/15 08:01:19;;;;;;;5.78;3.63;;;9.50;99.90;;;;;;5091909;28;20032;-79
2022/04/15 08:03:46;;;;;;;8.13;4.18;;;9.60;99.90;;;;;;5108318;28;20046;-80
2022/04/15 08:06:13;;;;;;;12.40;4.05;;;9.70;99.90;;;;;;5075132;28;20096;-80
2022/04/15 08:08:39;;;;;;;11.07;4.15;;;9.80;99.90;;;;;;5108021;28;20466;-80
2022/04/15 08:11:05;;;;;;;20.27;4.30;;;9.90;99.90;;;;;;5110087;28;20506;-80
2022/04/15 08:13:32;;;;;;;10.77;4.10;;;10.00;99.90;;;;;;5088921;28;20074;-80
2022/04/15 08:15:58;;;;;;;8.50;3.17;;;10.40;99.90;;;;;;5109400;28;20047;-78
2022/04/15 08:18:24;;;;;;;6.60;3.15;;;10.90;99.90;;;;;;5075839;28;20047;-80
2022/04/15 08:20:52;;;;;;;8.15;3.25;;;10.50;99.90;;;;;;5073831;28;20040;-81
2022/04/15 08:23:20;;;;;;;10.02;2.80;;;11.60;99.90;;;;;;5092975;28;20047;-81
2022/04/15 08:25:46;;;;;;;6.90;3.47;;;10.70;99.90;;;;;;5109216;28;20449;-81
2022/04/15 08:28:12;;;;;;;7.53;3.28;;;10.70;99.90;;;;;;5093361;28;20552;-80
2022/04/15 08:30:38;;;;;;;8.13;3.78;;;10.60;99.90;;;;;;5110157;28;20098;-80
2022/04/15 08:33:05;;;;;;;5.63;3.25;;;10.50;99.90;;;;;;5094119;28;20052;-78
2022/04/15 08:35:33;;;;;;;9.77;3.65;;;10.50;99.90;;;;;;5076830;28;20134;-78
2022/04/15 08:37:59;;;;;;;6.35;3.15;;;10.30;99.90;;;;;;5055783;28;20051;-77
2022/04/15 08:40:32;;;;;;;7.95;3.65;;;11.50;99.90;;;;;;5090596;28;20554;-77
2022/04/15 08:43:02;;;;;;;10.63;3.38;;;10.90;99.90;;;;;;5089615;28;20052;-77
2022/04/15 08:45:28;;;;;;;5.32;3.45;;;10.50;99.90;;;;;;5109268;28;20031;-77
2022/04/15 08:47:57;;;;;;;6.60;3.33;;;10.80;99.90;;;;;;5108286;28;20032;-79
2022/04/15 08:50:24;;;;;;;5.20;2.70;;;11.20;99.90;;;;;;5108210;28;20040;-79
2022/04/15 08:52:54;;;;;;;9.88;3.88;;;11.40;99.90;;;;;;5110911;28;20040;-79
2022/04/15 08:55:21;;;;;;;6.18;3.60;;;11.20;99.90;;;;;;5107962;28;20047;-79
2022/04/15 08:57:51;;;;;;;6.25;2.92;;;11.10;99.90;;;;;;5091325;28;20105;-79
2022/04/15 09:00:19;;;;;;;9.18;3.17;;;11.00;99.90;;;;;;5109106;28;20044;-82
2022/04/15 09:02:45;;;;;;;7.72;4.07;;;11.20;99.90;;;;;;5092181;28;20054;-80
2022/04/15 09:05:12;;;;;;;5.90;3.60;;;11.50;99.90;;;;;;5110819;28;20115;-81
2022/04/15 09:07:38;;;;;;;5.45;2.60;;;12.00;99.90;;;;;;5109203;28;20395;-80
2022/04/15 09:10:06;;;;;;;7.18;3.22;;;12.40;99.90;;;;;;5111009;28;20043;-79
2022/04/15 09:12:35;;;;;;;6.22;3.03;;;12.60;99.90;;;;;;5089516;28;20058;-78
2022/04/15 09:15:07;;;;;;;4.80;2.58;;;12.40;99.90;;;;;;5109902;28;20048;-83
2022/04/15 09:17:40;;;;;;;8.30;2.78;;;12.30;99.90;;;;;;5092092;28;20489;-81
2022/04/15 09:20:09;;;;;;;11.50;3.30;;;12.30;99.90;;;;;;5090615;28;20035;-78
2022/04/15 09:22:35;;;;;;;6.70;3.08;;;12.00;99.90;;;;;;5109332;28;20050;-77
2022/04/15 09:25:02;;;;;;;5.45;2.42;;;11.90;99.90;;;;;;5107697;28;20028;-78
2022/04/15 09:27:28;;;;;;;4.88;3.70;;;11.80;99.90;;;;;;5112724;28;20043;-78
2022/04/15 09:29:54;;;;;;;7.55;3.35;;;11.80;99.90;;;;;;5091836;28;20145;-78
2022/04/15 09:32:23;;;;;;;8.20;3.35;;;11.60;99.90;;;;;;5095070;28;20047;-78
2022/04/15 09:35:00;;;;;;;6.85;4.03;;;11.50;99.90;;;;;;5112244;28;20115;-79
2022/04/15 09:37:35;;;;;;;9.43;3.75;;;11.50;99.90;;;;;;5110876;28;20471;-78
2022/04/15 09:40:14;;;;;;;7.95;3.70;;;11.50;99.90;;;;;;5112644;28;20039;-79
2022/04/15 09:42:47;;;;;;;10.98;4.15;;;11.50;99.90;;;;;;5110111;28;20492;-78
2022/04/15 09:45:14;;;;;;;;;;;11.50;99.90;;;;;;5112570;28;20482;-78
2022/04/15 09:47:40;;;;;;;11.48;3.53;;;11.50;99.90;;;;;;5110647;28;20255;-78
2022/04/15 09:50:23;;;;;;;8.73;3.20;;;11.50;99.90;;;;;;5110929;28;20075;-78
2022/04/15 09:52:50;;;;;;;7.03;3.63;;;11.60;99.90;;;;;;5093794;28;20071;-78
2022/04/15 09:55:19;;;;;;;9.43;3.10;;;12.80;99.90;;;;;;5109891;28;20043;-78
2022/04/15 09:57:47;;;;;;;9.68;3.70;;;11.50;99.90;;;;;;5112186;28;20112;-78
2022/04/15 10:00:14;;;;;;;8.13;3.70;;;11.50;99.90;;;;;;5111031;28;20048;-79
2022/04/15 10:02:42;;;;;;;6.93;3.10;;;11.50;99.90;;;;;;5112303;28;20044;-77
2022/04/15 10:05:08;;;;;;;7.15;3.95;;;12.20;99.90;;;;;;5113086;28;20048;-78
2022/04/15 10:07:35;;;;;;;7.13;3.83;;;11.60;99.90;;;;;;5110475;28;20047;-77
2022/04/15 10:10:02;;;;;;;8.30;3.45;;;11.60;99.90;;;;;;5077273;28;20502;-78
2022/04/15 10:12:29;;;;;;;6.05;3.13;;;11.60;99.90;;;;;;5091013;28;20062;-78
2022/04/15 10:14:55;;;;;;;5.25;2.75;;;11.60;99.90;;;;;;5077339;28;20044;-77
2022/04/15 10:17:23;;;;;;;7.93;3.13;;;11.70;99.90;;;;;;5109948;28;20402;-78
2022/04/15 10:19:49;;;;;;;9.18;3.28;;;11.80;99.90;;;;;;5109996;28;20048;-78
2022/04/15 10:22:16;;;;;;;6.65;3.30;;;11.80;99.90;;;;;;5075722;28;20043;-77
2022/04/15 10:24:42;;;;;;;5.70;3.35;;;12.40;99.90;;;;;;5108845;28;20046;-78
2022/04/15 10:27:11;;;;;;;4.70;3.30;;;11.70;99.90;;;;;;5111725;28;20051;-78
2022/04/15 10:29:37;;;;;;;6.13;3.15;;;12.10;99.90;;;;;;5090591;28;20121;-79
2022/04/15 10:32:13;;;;;;;5.75;3.15;;;11.50;99.90;;;;;;5110432;28;20130;-77
2022/04/15 10:34:47;;;;;;;7.60;3.20;;;11.40;99.90;;;;;;5109715;28;20390;-79
2022/04/15 10:37:12;;;;;;;5.28;2.92;;;11.30;99.90;;;;;;5107398;28;20502;-78
2022/04/15 10:39:48;;;;;;;6.20;3.30;;;11.80;99.90;;;;;;5110724;28;20447;-78
2022/04/15 10:42:22;;;;;;;8.93;3.30;;;11.30;99.90;;;;;;5108164;28;20054;-78
2022/04/15 10:44:48;;;;;;;8.43;3.80;;;11.40;99.90;;;;;;5092248;28;20055;-78
2022/04/15 10:47:19;;;;;;;4.95;3.30;;;12.00;99.90;;;;;;5090845;28;20044;-78
2022/04/15 10:50:03;;;;;;;6.15;3.15;;;11.40;99.90;;;;;;5109392;28;20462;-76
2022/04/15 10:52:30;;;;;;;;;;;11.40;99.90;;;;;;5092597;28;20039;-78
2022/04/15 10:55:02;;;;;;;4.10;2.75;;;12.60;99.90;;;;;;5107668;28;20395;-78
2022/04/15 10:57:33;;;;;;;4.28;2.85;;;11.90;99.90;;;;;;5109691;28;20091;-78
2022/04/15 11:02:48;;;;;;;7.72;3.78;;;11.20;99.90;;;;;;5091593;28;20047;-78
2022/04/15 11:05:51;;;;;;;4.00;2.90;;;11.20;99.90;;;;;;5109656;28;20047;-77
2022/04/15 11:08:18;;;;;;;4.28;3.30;;;11.20;99.90;;;;;;5089823;28;20047;-78
2022/04/15 11:10:58;;;;;;;5.40;3.47;;;11.20;99.90;;;;;;5091503;28;20400;-78
2022/04/15 11:13:24;;;;;;;6.55;3.75;;;11.20;99.90;;;;;;5109554;28;20039;-78
2022/04/15 11:15:58;;;;;;;3.83;2.67;;;11.30;99.90;;;;;;5107877;28;20044;-76
2022/04/15 11:18:43;;;;;;;6.38;3.45;;;11.40;99.90;;;;;;5092024;28;20119;-78
2022/04/15 11:21:19;;;;;;;4.60;3.03;;;11.40;99.90;;;;;;5108188;28;20036;-77
2022/04/15 11:23:47;;;;;;;5.28;3.42;;;11.40;99.90;;;;;;5073364;28;20052;-77
2022/04/15 11:26:15;;;;;;;6.72;3.15;;;12.60;99.90;;;;;;5074381;28;20126;-78
2022/04/15 11:28:43;;;;;;;5.35;3.20;;;11.20;99.90;;;;;;5107878;28;20047;-78
2022/04/15 11:31:27;;;;;;;7.43;3.53;;;11.20;99.90;;;;;;5091591;28;20427;-78
2022/04/15 11:33:55;;;;;;;5.63;3.55;;;11.80;99.90;;;;;;5091656;28;20120;-78
2022/04/15 11:36:22;;;;;;;6.63;3.45;;;11.20;99.90;;;;;;5093410;28;20055;-79
2022/04/15 11:38:49;;;;;;;4.38;3.38;;;11.40;99.90;;;;;;5110795;28;20097;-78
2022/04/15 11:41:24;;;;;;;6.47;3.55;;;11.30;99.90;;;;;;5108433;28;20656;-78
2022/04/15 11:44:06;;;;;;;6.10;3.35;;;11.40;99.90;;;;;;5109804;28;20436;-78
2022/04/15 11:46:40;;;;;;;4.07;2.88;;;11.40;99.90;;;;;;5107266;28;20440;-78
2022/04/15 11:49:22;;;;;;;7.57;3.03;;;11.40;99.90;;;;;;5073356;28;20510;-78
2022/04/15 11:51:51;;;;;;;5.80;3.47;;;10.70;99.90;;;;;;5109027;28;20035;-78
2022/04/15 11:54:20;;;;;;;7.45;3.30;;;11.40;99.90;;;;;;5088981;28;20047;-78
2022/04/15 11:56:46;;;;;;;10.02;3.85;;;11.20;99.90;;;;;;5109600;28;20051;-79
2022/04/15 11:59:13;;;;;;;6.55;3.22;;;11.20;99.90;;;;;;5106638;28;20113;-79
2022/04/15 12:01:39;;;;;;;8.15;4.10;;;11.20;99.90;;;;;;5108695;28;20494;-77
2022/04/15 12:04:06;;;;;;;8.27;3.83;;;11.20;99.90;;;;;;5107383;28;20203;-78
2022/04/15 12:06:32;;;;;;;9.32;3.63;;;11.10;99.90;;;;;;5107298;28;20565;-78
2022/04/15 12:08:58;;;;;;;7.93;4.47;;;11.10;99.90;;;;;;5090100;28;20439;-78
2022/04/15 12:11:25;;;;;;;9.88;3.30;;;11.00;99.90;;;;;;5106596;28;20126;-78
2022/04/15 12:13:59;;;;;;;8.82;4.07;;;11.00;99.90;;;;;;5090540;28;20395;-78
2022/04/15 12:16:29;;;;;;;5.75;3.63;;;10.30;99.90;;;;;;5106532;28;20047;-78
2022/04/15 12:18:56;;;;;;;9.95;3.75;;;11.80;99.90;;;;;;5108273;28;20386;-78
2022/04/15 12:21:25;;;;;;;7.25;3.30;;;10.90;99.90;;;;;;5107380;28;20050;-78
2022/04/15 12:24:06;;;;;;;10.35;4.20;;;10.60;99.90;;;;;;5106687;28;20496;-78
2022/04/15 12:26:47;;;;;;;7.00;3.63;;;11.00;99.90;;;;;;5090113;28;20138;-77
2022/04/15 12:32:25;;;;;;;6.03;3.13;;;11.00;99.90;;;;;;5090024;28;20100;-77
2022/04/15 12:35:00;;;;;;;5.95;3.35;;;11.00;99.90;;;;;;5073300;28;20036;-78
2022/04/15 12:37:47;;;;;;;7.45;3.63;;;10.30;99.90;;;;;;5105933;28;20047;-78
2022/04/15 12:40:19;;;;;;;7.35;3.60;;;10.80;99.90;;;;;;5107914;28;20081;-78
2022/04/15 12:42:46;;;;;;;6.72;3.58;;;12.20;99.90;;;;;;5088881;28;20047;-79
2022/04/15 12:45:17;;;;;;;9.43;3.83;;;10.80;99.90;;;;;;5106652;28;20391;-79
2022/04/15 12:47:45;;;;;;;8.35;4.47;;;10.80;99.90;;;;;;5108244;28;20130;-78
2022/04/15 12:50:19;;;;;;;7.78;3.92;;;10.90;99.90;;;;;;5087563;28;20035;-79
2022/04/15 12:52:46;;;;;;;8.23;3.78;;;10.80;99.90;;;;;;5107664;28;20044;-77
2022/04/15 12:55:12;;;;;;;8.25;3.95;;;10.90;99.90;;;;;;5106592;28;20501;-77
2022/04/15 12:57:43;;;;;;;9.32;3.08;;;12.00;99.90;;;;;;5107179;28;20035;-78
2022/04/15 13:00:12;;;;;;;4.72;3.08;;;10.90;99.90;;;;;;5106888;28;20409;-78
2022/04/15 13:02:39;;;;;;;11.55;3.63;;;11.00;99.90;;;;;;5087373;28;20161;-78